HQMBOWERMAN
METARs for airports near HQM, sorted by distance:
N 0 nm 17' KHQM 171553Z 29012G18KT 10SM FEW025 OVC030 12/09 A3007
NE 35 nm 272' KSHN 171553Z 35004KT 10SM FEW110 11/08 A3000
E 42 nm 207' KOLM 171554Z 19004KT 10SM OVC029 13/09 A3004
SE 42 nm 177' KCLS 171535Z 17005KT 9SM FEW027 OVC035 11/10 A3006
S 48 nm 14' KAST 171455Z 31011KT 10SM FEW043 SCT050 13/09 A3008
E 55 nm 301' KGRF 171535Z 13006KT 9SM BKN022 OVC070 12/09 A3001
NE 57 nm 444' KPWT 171541Z 25004KT 10SM OVC005 A3003
E 58 nm 294' KTIW 171553Z 19005KT 10SM OVC015 11/09 A3004
E 60 nm 322' KTCM 171505Z 20003KT 10SM FEW016 SCT022 OVC070 11/08 A3003
NW 63 nm 194' KUIL 171553Z 27004KT 10SM FEW015 OVC023 12/10 A3005
SE 66 nm 20' KKLS 171539Z 16006KT 10SM SCT016 BKN034 OVC043 11/08 A3010
E 67 nm 537' KPLU 171535Z 00000KT 10SM SCT017 SCT025 OVC060 11/09 A3005
N 71 nm 291' KCLM 171553Z 30008KT 10SM CLR 14/09 A3001
NE 72 nm 432' KSEA 171553Z 18006KT 10SM BKN011 OVC050 11/07 A3003
N 73 nm 13' KNOW 171535Z 26006KT 10SM CLR 12/10 A3002
NE 74 nm 21' KBFI 171553Z 18009KT 10SM OVC013 13/08 A3004
NE 76 nm 32' KRNT 171553Z 17007KT 10SM -RA OVC017 12/08 A3004
SE 84 nm 58' KSPB 171553Z 15003KT 10SM BKN036 OVC043 A3009
NE 87 nm 606' KPAE 171553Z 23004KT 10SM BKN008 BKN011 OVC032 12/09 A3003
S 93 nm 39' KTMK 171535Z 00000KT 9SM FEW004 FEW021 OVC055 12/12 A3012
SE 95 nm 207' KHIO 171553Z 00000KT 10SM -RA FEW010 BKN019 OVC030 10/08 A3010
SE 96 nm 28' KVUO 171553Z 00000KT 4SM -RA BKN023 OVC030 12/08 A3012
NE 97 nm 47' KNUW 171453Z 26006KT 10SM SCT015 BKN025 BKN035 10/10 A3001
SE 99 nm 30' KPDX 171553Z 18005KT 10SM FEW015 BKN030 OVC032 12/07 A3011
TAFs for airports near HQM, sorted by distance:
N 0 nm 17' KHQM TAF KHQM 171120Z 1712/1812 30008KT P6SM OVC025
  FM172100 26015G24KT P6SM SCT025 OVC035
  FM180400 27007KT P6SM OVC025
E 42 nm 207' KOLM TAF KOLM 171120Z 1712/1812 VRB05KT P6SM SCT040 BKN060
  FM171500 21008KT P6SM OVC025
  FM171900 23011KT P6SM SCT030 OVC050
  FM180300 23006KT P6SM BKN050
  FM180700 VRB04KT P6SM OVC030
S 48 nm 14' KAST KAST 171131Z 1712/1812 29008KT P6SM -SHRA SCT015 BKN025 OVC035
  FM171900 28010KT P6SM SCT035
  FM180400 27005KT P6SM BKN025
E 55 nm 301' KGRF TAF KGRF 171300Z 1713/1819 13006KT 8000 BR SCT008 BKN012 OVC090 QNH2997INS
  BECMG 1715/1716 22006KT 9999 NSW BKN020 QNH2999INS
  BECMG 1718/1719 24009KT 9999 BKN030 QNH2999INS
  TEMPO 1722/1804 25012G20KT
  BECMG 1805/1806 13006KT 9999 BKN015 OVC045 QNH3003INS
  BECMG 1816/1817 24006KT 9999 OVC020 QNH3006INS TX19/1722Z TN08/1713Z
NE 57 nm 444' KPWT TAF
  AMD KPWT 171257Z 1713/1812 20004KT P6SM BKN050
  TEMPO 1713/1716 -SHRA OVC003
  FM172000 21009KT P6SM BKN030 BKN050
  FM180400 17006KT P6SM OVC030
  FM180800 VRB03KT P6SM OVC020
E 60 nm 322' KTCM TAF KTCM 171300Z 1713/1819 19006KT 9999 OVC050 620606 QNH3000INS
  TEMPO 1713/1715 BKN015
  BECMG 1716/1717 21006KT 9999 BKN025 OVC050 620601 QNH3001INS
  BECMG 1720/1721 24010G15KT 9999 VCSH BKN040 610603 QNH3001INS
  BECMG 1723/1724 24010G15KT 9999 NSW BKN050 620603 QNH3001INS
  TEMPO 1800/1803 24012G20KT
  BECMG 1804/1805 22010KT 9999 BKN020 620603 QNH3004INS TX18/1721Z TN09/1809Z
N 71 nm 291' KCLM TAF KCLM 171120Z 1712/1812 27008KT P6SM OVC060
  FM171600 30012KT P6SM OVC030
  FM172100 32015G24KT P6SM OVC050
  FM180400 28008KT P6SM BKN050
NE 72 nm 432' KSEA KSEA 171300Z 1713/1818 21006KT P6SM VCSH SCT020 OVC050
  TEMPO 1713/1716 -SHRA OVC010
  FM172000 22010KT P6SM BKN040
  FM180400 20008KT P6SM OVC040
NE 74 nm 21' KBFI TAF KBFI 171120Z 1712/1812 18005KT P6SM OVC050
  TEMPO 1712/1716 -SHRA OVC020
  FM172100 22008KT P6SM BKN050
  FM180400 VRB03KT P6SM OVC050
NE 87 nm 606' KPAE TAF KPAE 171120Z 1712/1812 18007KT P6SM VCSH SCT010 BKN030
  TEMPO 1712/1716 -SHRA OVC007
  FM172100 33006KT P6SM BKN030 OVC050
  FM180600 VRB05KT P6SM BKN050
SE 95 nm 207' KHIO TAF KHIO 171131Z 1712/1812 00000KT P6SM SCT025 BKN035
  FM171900 28005KT P6SM SCT035
  FM172300 31008KT P6SM SCT045
  FM180800 VRB03KT P6SM BKN040
NE 97 nm 47' KNUW TAF KNUW 1715/1815 22008KT 9999 VCSH FEW015 BKN025 BKN035 QNH2996INS
  TEMPO 1715/1719 VRB06KT 8000 -SHRA BR SCT003 BKN010 OVC020
  FM172000 VRB06KT 9999 VCSH FEW015 SCT025 BKN040 BKN150 QNH3000INS
  FM180000 21010G15KT 9999 FEW030 BKN060 BKN150 BKN200 QNH3002INS
  FM181000 23009KT 9999 FEW020 SCT030 SCT200 QNH3002INS TX15/1722Z TN08/1812Z FS30028
SE 99 nm 30' KPDX KPDX 171458Z 1715/1812 22004KT P6SM VCSH SCT035 OVC050
  TEMPO 1715/1718 6SM -SHRA BKN025 OVC035
  FM171900 27006KT P6SM FEW025 BKN040
  FM180000 31007KT P6SM BKN050

Shortcut to this page: http://wxbay.com.

Data may contain errors.